Time;durP1;ratioP1;P1;durP2;ratioP2;P2;SDS_P1;SDS_P2;PMS_P1;PMS_P2;Temp;Humidity;BMP_temperature;BMP_pressure;BME280_temperature;BME280_humidity;BME280_pressure;Samples;Min_cycle;Max_cycle;Signal;HPM_P1;HPM_P2
2021/05/27 00:02:10;;;;;;;2.30;1.37;;;10.20;99.70;;;;;;5029259;28;20445;-71
2021/05/27 00:04:37;;;;;;;2.80;1.60;;;10.00;99.70;;;;;;5028731;28;20518;-71
2021/05/27 00:07:03;;;;;;;2.17;1.30;;;9.90;99.70;;;;;;5028783;28;20455;-71
2021/05/27 00:09:29;;;;;;;2.10;1.17;;;10.00;99.70;;;;;;5028972;28;20488;-71
2021/05/27 00:11:56;;;;;;;1.50;1.20;;;9.90;99.70;;;;;;5028905;28;20451;-71
2021/05/27 00:14:23;;;;;;;1.40;1.10;;;9.90;99.70;;;;;;5026627;28;20451;-71
2021/05/27 00:16:49;;;;;;;2.00;1.20;;;10.00;99.70;;;;;;5028714;28;20978;-71
2021/05/27 00:19:15;;;;;;;2.13;1.10;;;9.90;99.70;;;;;;5029003;28;21021;-70
2021/05/27 00:21:41;;;;;;;1.40;1.10;;;9.90;99.70;;;;;;5029208;28;20448;-70
2021/05/27 00:24:08;;;;;;;2.03;1.03;;;10.00;99.70;;;;;;5028454;28;20499;-69
2021/05/27 00:26:34;;;;;;;1.60;1.30;;;10.00;99.70;;;;;;5028536;28;20894;-69
2021/05/27 00:29:01;;;;;;;1.97;1.40;;;9.90;99.70;;;;;;5028741;28;20465;-70
2021/05/27 00:31:28;;;;;;;2.20;1.30;;;9.80;99.70;;;;;;5028906;28;20448;-70
2021/05/27 00:33:54;;;;;;;1.50;1.10;;;9.80;99.70;;;;;;5029071;28;20449;-69
2021/05/27 00:36:20;;;;;;;1.30;1.00;;;9.80;99.70;;;;;;5032740;28;20444;-70
2021/05/27 00:38:46;;;;;;;1.83;1.20;;;9.80;99.70;;;;;;5032307;28;20472;-70
2021/05/27 00:41:12;;;;;;;1.60;1.20;;;9.80;99.70;;;;;;5032747;28;20448;-70
2021/05/27 00:43:39;;;;;;;1.70;1.30;;;9.70;99.70;;;;;;5031877;28;20444;-70
2021/05/27 00:46:05;;;;;;;1.30;1.10;;;9.70;99.70;;;;;;5032561;28;20441;-70
2021/05/27 00:51:28;;;;;;;2.20;1.30;;;9.80;99.70;;;;;;5010155;28;20444;-70
2021/05/27 00:53:56;;;;;;;2.90;1.57;;;9.80;99.70;;;;;;5026114;28;20502;-70
2021/05/27 00:56:22;;;;;;;1.40;1.20;;;9.90;99.70;;;;;;5032397;28;20952;-70
2021/05/27 00:58:49;;;;;;;1.90;1.30;;;9.90;99.70;;;;;;5031974;28;20473;-70
2021/05/27 01:01:16;;;;;;;2.00;1.43;;;9.90;99.70;;;;;;5032273;28;20443;-70
2021/05/27 01:03:43;;;;;;;2.10;1.33;;;9.70;99.70;;;;;;5031543;28;20986;-70
2021/05/27 01:06:09;;;;;;;1.70;1.33;;;9.80;99.70;;;;;;5032267;28;20953;-70
2021/05/27 01:08:36;;;;;;;2.33;1.30;;;9.80;99.70;;;;;;5031441;28;20475;-70
2021/05/27 01:11:02;;;;;;;2.50;1.27;;;9.80;99.70;;;;;;5031937;28;20480;-69
2021/05/27 01:13:29;;;;;;;2.67;1.30;;;9.80;99.70;;;;;;5029636;28;20877;-70
2021/05/27 01:15:55;;;;;;;1.73;1.20;;;9.80;99.70;;;;;;5032012;28;20445;-70
2021/05/27 01:18:23;;;;;;;1.70;1.30;;;9.80;99.70;;;;;;5031758;28;20469;-70
2021/05/27 01:20:53;;;;;;;1.70;1.17;;;9.70;99.70;;;;;;5031734;28;20471;-70
2021/05/27 01:23:22;;;;;;;2.17;1.40;;;9.70;99.70;;;;;;5031138;28;20441;-70
2021/05/27 01:25:50;;;;;;;1.73;1.30;;;9.60;99.70;;;;;;5031995;28;20853;-70
2021/05/27 01:28:17;;;;;;;1.90;1.10;;;9.70;99.70;;;;;;5031306;28;20488;-70
2021/05/27 01:30:45;;;;;;;2.07;1.30;;;9.70;99.70;;;;;;5031583;28;21002;-70
2021/05/27 01:33:12;;;;;;;2.93;1.67;;;9.70;99.70;;;;;;5031155;28;20735;-70
2021/05/27 01:35:38;;;;;;;1.90;1.40;;;9.70;99.70;;;;;;5031613;28;20459;-70
2021/05/27 01:38:12;;;;;;;1.47;1.23;;;9.70;99.70;;;;;;5031312;28;20472;-70
2021/05/27 01:40:40;;;;;;;1.90;1.13;;;9.50;99.70;;;;;;5031877;28;20531;-70
2021/05/27 01:43:07;;;;;;;2.53;1.30;;;9.50;99.70;;;;;;5031186;28;20834;-70
2021/05/27 01:45:33;;;;;;;1.60;1.20;;;9.80;99.70;;;;;;5031322;28;20444;-70
2021/05/27 01:48:00;;;;;;;1.47;1.10;;;9.70;99.70;;;;;;5031233;28;20476;-70
2021/05/27 01:50:26;;;;;;;1.30;1.13;;;9.70;99.70;;;;;;5031431;28;20579;-70
2021/05/27 01:52:57;;;;;;;2.60;1.30;;;9.70;99.70;;;;;;5030792;28;20452;-70
2021/05/27 01:55:24;;;;;;;2.03;1.30;;;9.70;99.70;;;;;;5031406;28;20886;-70
2021/05/27 01:57:51;;;;;;;2.90;1.60;;;9.60;99.70;;;;;;5031095;28;20830;-70
2021/05/27 02:00:18;;;;;;;2.97;1.60;;;9.50;99.70;;;;;;5031243;28;20440;-71
2021/05/27 02:02:44;;;;;;;2.13;1.20;;;9.40;99.70;;;;;;5030547;28;20440;-71
2021/05/27 02:05:11;;;;;;;1.60;1.20;;;9.60;99.70;;;;;;5031016;28;20449;-71
2021/05/27 02:07:37;;;;;;;1.60;1.20;;;9.80;99.70;;;;;;5030699;28;20471;-71
2021/05/27 02:10:05;;;;;;;1.63;1.17;;;9.70;99.70;;;;;;5030971;28;20534;-71
2021/05/27 02:12:32;;;;;;;2.80;1.20;;;9.70;99.70;;;;;;5028524;28;20468;-70
2021/05/27 02:14:59;;;;;;;1.83;1.20;;;9.80;99.70;;;;;;5030885;28;20798;-71
2021/05/27 02:17:25;;;;;;;1.93;1.27;;;9.60;99.70;;;;;;5030668;28;20448;-71
2021/05/27 02:19:51;;;;;;;2.23;1.50;;;9.50;99.70;;;;;;5030705;28;20457;-71
2021/05/27 02:22:17;;;;;;;1.90;1.53;;;9.40;99.70;;;;;;5030159;28;20498;-71
2021/05/27 02:24:44;;;;;;;3.10;1.90;;;9.40;99.70;;;;;;5029716;28;20441;-71
2021/05/27 02:27:10;;;;;;;1.50;1.27;;;9.50;99.70;;;;;;5030561;28;20441;-71
2021/05/27 02:29:36;;;;;;;2.33;1.37;;;9.70;99.70;;;;;;5030268;28;20487;-71
2021/05/27 02:32:03;;;;;;;2.10;1.47;;;9.60;99.70;;;;;;5030796;28;20468;-71
2021/05/27 02:34:30;;;;;;;2.40;1.50;;;9.50;99.70;;;;;;5029822;28;20445;-71
2021/05/27 02:36:56;;;;;;;1.87;1.33;;;9.50;99.70;;;;;;5030168;28;21016;-71
2021/05/27 02:39:22;;;;;;;2.87;1.53;;;9.50;99.70;;;;;;5030448;28;20468;-71
2021/05/27 02:41:48;;;;;;;2.37;1.50;;;9.50;99.70;;;;;;5030469;28;20463;-71
2021/05/27 02:44:15;;;;;;;2.27;1.60;;;9.60;99.70;;;;;;5029901;28;20440;-70
2021/05/27 02:46:41;;;;;;;3.10;1.50;;;9.60;99.70;;;;;;5030015;28;20457;-70
2021/05/27 02:49:08;;;;;;;3.40;1.47;;;9.80;99.70;;;;;;5030200;28;20471;-71
2021/05/27 02:51:34;;;;;;;2.70;1.50;;;9.60;99.70;;;;;;5030200;28;20448;-71
2021/05/27 02:54:00;;;;;;;1.97;1.43;;;9.70;99.70;;;;;;5029547;28;20456;-70
2021/05/27 02:56:27;;;;;;;2.40;1.33;;;9.50;99.70;;;;;;5029766;28;20871;-71
2021/05/27 02:58:53;;;;;;;1.70;1.27;;;9.50;99.70;;;;;;5029672;28;20473;-71
2021/05/27 03:01:19;;;;;;;2.40;1.70;;;9.60;99.70;;;;;;5030020;28;20499;-71
2021/05/27 03:03:46;;;;;;;2.30;1.30;;;9.60;99.70;;;;;;5029262;28;20444;-71
2021/05/27 03:06:13;;;;;;;2.60;1.37;;;9.50;99.70;;;;;;5030063;28;20494;-71
2021/05/27 03:08:41;;;;;;;3.50;1.13;;;9.40;99.70;;;;;;5029581;28;20530;-71
2021/05/27 03:11:07;;;;;;;2.10;1.33;;;9.30;99.70;;;;;;5029838;28;21013;-71
2021/05/27 03:13:34;;;;;;;2.57;1.50;;;9.30;99.70;;;;;;5027205;28;20456;-71
2021/05/27 03:16:00;;;;;;;1.83;1.40;;;9.20;99.70;;;;;;5029769;28;20445;-70
2021/05/27 03:18:27;;;;;;;1.43;1.20;;;9.40;99.70;;;;;;5029585;28;20460;-70
2021/05/27 03:20:53;;;;;;;2.53;1.23;;;9.40;99.70;;;;;;5029552;28;20994;-71
2021/05/27 03:23:20;;;;;;;1.80;1.20;;;9.50;99.70;;;;;;5029145;28;20445;-71
2021/05/27 03:25:46;;;;;;;1.57;1.37;;;9.50;99.70;;;;;;5029626;28;20444;-71
2021/05/27 03:28:13;;;;;;;2.40;1.50;;;9.50;99.70;;;;;;5029376;28;20468;-71
2021/05/27 03:30:39;;;;;;;1.90;1.20;;;9.50;99.70;;;;;;5029477;28;20484;-71
2021/05/27 03:33:06;;;;;;;1.70;1.40;;;9.50;99.70;;;;;;5029191;28;20476;-71
2021/05/27 03:35:32;;;;;;;2.97;1.60;;;9.70;99.70;;;;;;5029503;28;20452;-71
2021/05/27 03:37:59;;;;;;;2.77;1.50;;;9.70;99.70;;;;;;5029443;28;20542;-71
2021/05/27 03:40:26;;;;;;;1.60;1.37;;;9.70;99.70;;;;;;5029524;28;20632;-71
2021/05/27 03:42:54;;;;;;;2.50;1.47;;;9.60;99.70;;;;;;5028915;28;20506;-71
2021/05/27 03:45:22;;;;;;;2.23;1.37;;;9.60;99.70;;;;;;5029351;28;20701;-70
2021/05/27 03:47:49;;;;;;;1.60;1.30;;;9.50;99.70;;;;;;5029222;28;20445;-71
2021/05/27 03:50:18;;;;;;;1.50;1.30;;;9.50;99.70;;;;;;5029224;28;21035;-70
2021/05/27 03:52:44;;;;;;;2.20;1.33;;;9.50;99.70;;;;;;5028891;28;20441;-71
2021/05/27 03:55:12;;;;;;;1.83;1.10;;;9.50;99.70;;;;;;5029302;28;20936;-71
2021/05/27 03:57:40;;;;;;;1.50;1.20;;;9.50;99.70;;;;;;5029134;28;20456;-70
2021/05/27 04:02:54;;;;;;;4.50;1.77;;;9.30;99.70;;;;;;5028783;28;20980;-70
2021/05/27 04:08:06;;;;;;;1.80;1.17;;;9.50;99.70;;;;;;5030025;28;20458;-71
2021/05/27 04:10:33;;;;;;;2.27;1.30;;;9.50;99.70;;;;;;5032647;28;20484;-71
2021/05/27 04:13:01;;;;;;;2.47;1.40;;;9.50;99.70;;;;;;5030961;28;20458;-71
2021/05/27 04:15:31;;;;;;;1.80;1.40;;;9.60;99.70;;;;;;5033203;28;20444;-69
2021/05/27 04:18:00;;;;;;;1.77;1.27;;;9.60;99.70;;;;;;5033080;28;20521;-70
2021/05/27 04:20:28;;;;;;;1.60;1.40;;;9.70;99.70;;;;;;5032751;28;20468;-70
2021/05/27 04:22:55;;;;;;;1.70;1.13;;;9.80;99.70;;;;;;5032486;28;20947;-70
2021/05/27 04:25:23;;;;;;;1.83;1.40;;;9.70;99.70;;;;;;5032769;28;20846;-70
2021/05/27 04:27:50;;;;;;;2.07;1.33;;;9.70;99.70;;;;;;5032937;28;20453;-70
2021/05/27 04:30:19;;;;;;;1.90;1.40;;;9.60;99.70;;;;;;5032800;28;20567;-70
2021/05/27 04:33:03;;;;;;;1.73;1.30;;;9.40;99.70;;;;;;5032330;28;20992;-71
2021/05/27 04:35:33;;;;;;;2.87;1.53;;;9.40;99.70;;;;;;5032979;28;20489;-71
2021/05/27 04:38:02;;;;;;;2.03;1.37;;;9.30;99.70;;;;;;5032725;28;20471;-71
2021/05/27 04:40:29;;;;;;;2.00;1.30;;;9.30;99.70;;;;;;5032738;28;20448;-71
2021/05/27 04:42:55;;;;;;;3.20;1.60;;;9.10;99.70;;;;;;5031971;28;20455;-71
2021/05/27 04:45:23;;;;;;;2.40;1.30;;;9.00;99.70;;;;;;5032355;28;20445;-70
2021/05/27 04:47:50;;;;;;;2.67;1.87;;;9.00;99.70;;;;;;5032361;28;20451;-70
2021/05/27 04:50:16;;;;;;;2.73;1.40;;;9.10;99.70;;;;;;5032627;28;20476;-70
2021/05/27 04:52:43;;;;;;;2.43;1.50;;;9.00;99.70;;;;;;5031871;28;20448;-72
2021/05/27 04:55:11;;;;;;;3.13;1.47;;;9.10;99.70;;;;;;5032545;28;20459;-71
2021/05/27 04:57:38;;;;;;;1.40;1.13;;;9.10;99.70;;;;;;5032198;28;20464;-71
2021/05/27 05:00:08;;;;;;;2.33;1.50;;;9.20;99.70;;;;;;5032472;28;20441;-71
2021/05/27 05:02:36;;;;;;;3.10;1.60;;;9.20;99.70;;;;;;5031770;28;20447;-70
2021/05/27 05:05:02;;;;;;;2.10;1.50;;;9.30;99.70;;;;;;5032335;28;20452;-71
2021/05/27 05:07:28;;;;;;;2.70;1.57;;;9.20;99.70;;;;;;5032006;28;20444;-71
2021/05/27 05:09:55;;;;;;;3.47;1.80;;;9.10;99.70;;;;;;5031779;28;20485;-71
2021/05/27 05:12:21;;;;;;;2.00;1.50;;;9.10;99.70;;;;;;5030271;28;20444;-68
2021/05/27 05:14:47;;;;;;;3.00;1.40;;;9.20;99.70;;;;;;5030807;28;20479;-68
2021/05/27 05:17:13;;;;;;;3.93;1.77;;;9.20;99.70;;;;;;5031686;28;20460;-71
2021/05/27 05:19:40;;;;;;;1.77;1.30;;;9.20;99.70;;;;;;5031464;28;20464;-71
2021/05/27 05:22:06;;;;;;;2.43;1.47;;;9.20;99.70;;;;;;5031910;28;20990;-71
2021/05/27 05:24:33;;;;;;;2.13;1.23;;;9.40;99.70;;;;;;5031268;28;20457;-71
2021/05/27 05:27:01;;;;;;;1.47;1.23;;;9.70;99.70;;;;;;5031647;28;20451;-71
2021/05/27 05:29:27;;;;;;;4.80;1.90;;;9.90;99.70;;;;;;5031727;28;20476;-70
2021/05/27 05:31:53;;;;;;;1.90;1.40;;;10.20;99.70;;;;;;5031894;28;20499;-71
2021/05/27 05:34:19;;;;;;;1.90;1.40;;;10.30;99.70;;;;;;5031211;28;20452;-71
2021/05/27 05:36:46;;;;;;;2.10;1.40;;;10.40;99.70;;;;;;5031340;28;20448;-71
2021/05/27 05:39:12;;;;;;;2.70;1.33;;;10.50;99.70;;;;;;5031724;28;20468;-70
2021/05/27 05:41:40;;;;;;;2.23;1.30;;;10.60;99.70;;;;;;5031591;28;20432;-71
2021/05/27 05:44:07;;;;;;;2.73;1.50;;;10.70;99.70;;;;;;5031133;28;20448;-70
2021/05/27 05:46:33;;;;;;;2.87;2.03;;;10.70;99.70;;;;;;5031439;28;20448;-71
2021/05/27 05:48:59;;;;;;;3.13;1.50;;;10.80;99.70;;;;;;5031615;28;20472;-70
2021/05/27 05:51:25;;;;;;;1.80;1.40;;;11.00;99.70;;;;;;5031684;28;20487;-71
2021/05/27 05:53:52;;;;;;;2.37;1.60;;;11.20;99.70;;;;;;5031267;28;20503;-71
2021/05/27 05:56:18;;;;;;;2.80;1.77;;;11.20;99.70;;;;;;5031783;28;20524;-71
2021/05/27 05:58:44;;;;;;;2.90;1.57;;;11.20;99.70;;;;;;5031162;28;20460;-71
2021/05/27 06:01:11;;;;;;;2.80;1.67;;;11.40;99.70;;;;;;5031522;28;20459;-71
2021/05/27 06:03:37;;;;;;;1.87;1.40;;;11.30;99.70;;;;;;5030532;28;21017;-71
2021/05/27 06:06:03;;;;;;;1.77;1.37;;;11.60;99.70;;;;;;5031353;28;20445;-70
2021/05/27 06:08:29;;;;;;;2.20;1.50;;;11.60;99.70;;;;;;5030783;28;21018;-71
2021/05/27 06:10:56;;;;;;;2.27;1.47;;;11.90;99.70;;;;;;5031088;28;21088;-70
2021/05/27 06:13:22;;;;;;;2.57;1.60;;;11.90;99.70;;;;;;5028662;28;20441;-71
2021/05/27 06:15:49;;;;;;;2.27;1.50;;;11.90;99.70;;;;;;5031218;28;20498;-70
2021/05/27 06:18:16;;;;;;;2.10;1.40;;;11.80;99.70;;;;;;5030702;28;20464;-71
2021/05/27 06:20:42;;;;;;;3.47;1.60;;;11.70;99.70;;;;;;5031157;28;20480;-70
2021/05/27 06:23:09;;;;;;;1.80;1.30;;;11.80;99.70;;;;;;5030514;28;20483;-70
2021/05/27 06:25:37;;;;;;;2.20;1.33;;;12.00;99.70;;;;;;5030880;28;20943;-71
2021/05/27 06:28:04;;;;;;;2.50;1.40;;;12.10;99.70;;;;;;5030609;28;20460;-70
2021/05/27 06:30:30;;;;;;;2.37;1.30;;;12.30;99.70;;;;;;5030806;28;20866;-70
2021/05/27 06:32:58;;;;;;;3.27;1.60;;;13.10;99.70;;;;;;5029102;28;20449;-70
2021/05/27 06:35:25;;;;;;;2.07;1.47;;;13.70;99.70;;;;;;5030689;28;20459;-70
2021/05/27 06:37:51;;;;;;;3.33;1.57;;;14.10;99.70;;;;;;5030366;28;20452;-70
2021/05/27 06:40:20;;;;;;;2.20;1.60;;;14.70;99.70;;;;;;5030515;28;20441;-70
2021/05/27 06:42:46;;;;;;;2.13;1.40;;;14.40;99.70;;;;;;5029806;28;21062;-70
2021/05/27 06:45:15;;;;;;;1.80;1.30;;;14.10;99.70;;;;;;5030376;28;20448;-70
2021/05/27 06:47:41;;;;;;;2.00;1.40;;;14.20;99.70;;;;;;5030178;28;20467;-70
2021/05/27 06:50:08;;;;;;;2.67;1.40;;;15.10;99.70;;;;;;5030289;28;20480;-70
2021/05/27 06:52:35;;;;;;;2.20;1.53;;;15.50;99.70;;;;;;5029672;28;20459;-70
2021/05/27 06:55:01;;;;;;;1.87;1.43;;;15.60;99.70;;;;;;5030273;28;20444;-70
2021/05/27 06:57:28;;;;;;;1.97;1.50;;;15.60;99.70;;;;;;5030031;28;20445;-70
2021/05/27 06:59:54;;;;;;;1.93;1.40;;;16.40;98.90;;;;;;5030033;28;20461;-71
2021/05/27 07:02:21;;;;;;;2.30;1.40;;;16.20;96.60;;;;;;5030153;28;20444;-71
2021/05/27 07:04:47;;;;;;;1.80;1.50;;;15.90;98.60;;;;;;5029505;28;20475;-70
2021/05/27 07:07:14;;;;;;;1.93;1.50;;;16.20;99.50;;;;;;5029787;28;20506;-70
2021/05/27 07:09:40;;;;;;;1.80;1.40;;;16.00;99.70;;;;;;5029815;28;20542;-70
2021/05/27 07:12:07;;;;;;;1.50;1.40;;;16.10;98.20;;;;;;5030102;28;20449;-70
2021/05/27 07:14:33;;;;;;;2.20;1.50;;;16.20;99.40;;;;;;5027326;28;20456;-70
2021/05/27 07:17:00;;;;;;;2.30;1.50;;;15.90;99.30;;;;;;5029683;28;20479;-70
2021/05/27 07:19:27;;;;;;;2.47;1.30;;;15.90;99.70;;;;;;5029896;28;20468;-70
2021/05/27 07:21:53;;;;;;;2.20;1.40;;;15.40;99.70;;;;;;5029787;28;20440;-70
2021/05/27 07:24:20;;;;;;;2.17;1.50;;;15.00;99.70;;;;;;5029024;28;20452;-70
2021/05/27 07:26:46;;;;;;;2.93;1.40;;;14.60;99.70;;;;;;5029349;28;20954;-70
2021/05/27 07:29:12;;;;;;;1.87;1.40;;;14.70;99.70;;;;;;5029717;28;20469;-70
2021/05/27 07:31:39;;;;;;;2.00;1.33;;;14.60;99.70;;;;;;5029582;28;21182;-70
2021/05/27 07:34:06;;;;;;;2.30;1.40;;;14.60;99.70;;;;;;5029006;28;20444;-70
2021/05/27 07:36:33;;;;;;;1.77;1.37;;;14.50;99.70;;;;;;5029353;28;20792;-70
2021/05/27 07:39:00;;;;;;;1.90;1.27;;;14.60;99.70;;;;;;5029250;28;20888;-70
2021/05/27 07:41:26;;;;;;;2.13;1.40;;;15.00;99.70;;;;;;5029544;28;20463;-70
2021/05/27 07:43:52;;;;;;;1.70;1.40;;;14.90;99.70;;;;;;5028594;28;20448;-70
2021/05/27 07:46:20;;;;;;;2.00;1.30;;;14.50;99.70;;;;;;5026534;28;20921;-71
2021/05/27 07:48:46;;;;;;;2.37;1.30;;;14.30;99.70;;;;;;5028367;28;21052;-71
2021/05/27 07:51:13;;;;;;;1.77;1.30;;;14.20;99.70;;;;;;5029625;28;20579;-71
2021/05/27 07:53:40;;;;;;;3.43;1.70;;;14.00;99.70;;;;;;5029227;28;20444;-71
2021/05/27 07:56:06;;;;;;;1.50;1.20;;;13.70;99.70;;;;;;5029537;28;20444;-71
2021/05/27 07:58:33;;;;;;;2.50;1.60;;;13.60;99.70;;;;;;5029466;28;20546;-71
2021/05/27 08:00:59;;;;;;;1.77;1.30;;;13.30;99.70;;;;;;5030045;28;20444;-70
2021/05/27 08:03:25;;;;;;;3.83;1.33;;;13.40;99.70;;;;;;5028891;28;20452;-70
2021/05/27 08:05:51;;;;;;;1.93;1.47;;;13.30;99.70;;;;;;5029945;28;20518;-70
2021/05/27 08:08:17;;;;;;;2.43;1.50;;;13.30;99.70;;;;;;5029053;28;20472;-71
2021/05/27 08:10:46;;;;;;;2.40;1.30;;;13.60;99.70;;;;;;5029748;28;20491;-71
2021/05/27 08:13:13;;;;;;;1.90;1.40;;;13.90;99.70;;;;;;5028881;28;20535;-71
2021/05/27 08:15:40;;;;;;;2.13;1.43;;;14.00;99.70;;;;;;5029595;28;20448;-69
2021/05/27 08:18:06;;;;;;;1.97;1.60;;;14.20;99.70;;;;;;5029124;28;20530;-71
2021/05/27 08:20:32;;;;;;;3.20;1.70;;;14.20;99.70;;;;;;5029214;28;20440;-70
2021/05/27 08:22:59;;;;;;;2.10;1.30;;;14.40;99.70;;;;;;5029288;28;20445;-71
2021/05/27 08:25:25;;;;;;;2.70;1.50;;;14.30;98.30;;;;;;5028193;28;20449;-71
2021/05/27 08:27:53;;;;;;;3.20;1.60;;;14.30;99.70;;;;;;5026704;28;20441;-71
2021/05/27 08:30:20;;;;;;;2.00;1.23;;;14.70;99.00;;;;;;5029050;28;20480;-71
2021/05/27 08:32:46;;;;;;;2.23;1.43;;;14.80;99.40;;;;;;5028608;28;20440;-71
2021/05/27 08:35:14;;;;;;;1.60;1.33;;;14.80;96.50;;;;;;5027537;28;20523;-70
2021/05/27 08:37:40;;;;;;;1.90;1.33;;;14.80;98.50;;;;;;5024959;28;20453;-70
2021/05/27 08:40:08;;;;;;;1.60;1.30;;;14.80;98.50;;;;;;5028392;28;20453;-70
2021/05/27 08:42:36;;;;;;;3.20;1.50;;;14.30;98.80;;;;;;5029145;28;20958;-70
2021/05/27 08:45:08;;;;;;;2.10;1.43;;;14.30;99.50;;;;;;5029349;28;20448;-70
2021/05/27 08:47:34;;;;;;;2.10;1.57;;;14.30;99.30;;;;;;5029664;28;20475;-72
2021/05/27 08:50:02;;;;;;;1.70;1.30;;;14.30;99.70;;;;;;5029433;28;20444;-71
2021/05/27 08:52:28;;;;;;;2.37;1.47;;;14.30;97.60;;;;;;5029699;28;20813;-70
2021/05/27 08:54:54;;;;;;;2.37;1.50;;;14.30;97.00;;;;;;5029909;28;20498;-71
2021/05/27 08:57:21;;;;;;;2.03;1.30;;;14.40;97.60;;;;;;5032642;28;20459;-71
2021/05/27 08:59:47;;;;;;;2.60;1.40;;;14.50;99.00;;;;;;5032995;28;20472;-70
2021/05/27 09:02:14;;;;;;;2.20;1.37;;;14.20;95.90;;;;;;5033119;28;20440;-70
2021/05/27 09:04:40;;;;;;;1.80;1.30;;;13.80;97.90;;;;;;5032431;28;21006;-70
2021/05/27 09:07:08;;;;;;;1.93;1.40;;;13.90;99.10;;;;;;5032840;28;20499;-71
2021/05/27 09:09:51;;;;;;;1.87;1.40;;;14.00;99.70;;;;;;5032861;28;20511;-70
2021/05/27 09:12:29;;;;;;;1.90;1.20;;;13.80;98.50;;;;;;5032520;28;20501;-71
2021/05/27 09:14:56;;;;;;;1.90;1.30;;;14.00;97.50;;;;;;5012680;28;20441;-71
2021/05/27 09:17:24;;;;;;;3.93;1.50;;;14.30;95.30;;;;;;5012820;28;20450;-70
2021/05/27 09:20:12;;;;;;;1.90;1.30;;;14.90;97.30;;;;;;5012847;28;20857;-70
2021/05/27 09:22:39;;;;;;;1.80;1.40;;;14.50;95.90;;;;;;5031346;28;20460;-70
2021/05/27 09:25:07;;;;;;;1.60;1.40;;;14.70;98.10;;;;;;5031792;28;20947;-70
2021/05/27 09:27:46;;;;;;;4.13;1.53;;;14.70;98.70;;;;;;5029046;28;20467;-71
2021/05/27 09:30:14;;;;;;;2.30;1.50;;;14.40;98.10;;;;;;5025877;28;20476;-70
2021/05/27 09:32:45;;;;;;;2.70;1.50;;;14.40;98.00;;;;;;5031737;28;20824;-71
2021/05/27 09:35:13;;;;;;;1.97;1.40;;;15.00;96.10;;;;;;5031905;28;20824;-71
2021/05/27 09:37:47;;;;;;;1.60;1.33;;;15.10;94.60;;;;;;5028905;28;20494;-70
2021/05/27 09:40:31;;;;;;;1.70;1.23;;;15.20;95.10;;;;;;5031792;28;20967;-70
2021/05/27 09:42:59;;;;;;;2.07;1.30;;;15.00;96.30;;;;;;5031187;28;20439;-71
2021/05/27 09:45:27;;;;;;;2.23;1.53;;;15.40;95.50;;;;;;5031758;28;20460;-70
2021/05/27 09:47:54;;;;;;;2.43;1.60;;;15.40;92.10;;;;;;5031511;28;22346;-70
2021/05/27 09:50:30;;;;;;;2.13;1.60;;;15.20;90.50;;;;;;5028376;28;20476;-70
2021/05/27 09:52:57;;;;;;;1.97;1.40;;;14.90;93.40;;;;;;5031966;28;20454;-70
2021/05/27 09:55:23;;;;;;;2.30;1.53;;;14.70;95.30;;;;;;5031193;28;20445;-70
2021/05/27 09:57:49;;;;;;;3.40;1.50;;;14.80;98.00;;;;;;5031503;28;20547;-70
2021/05/27 10:00:26;;;;;;;2.10;1.50;;;14.60;94.40;;;;;;5031331;28;20445;-72
2021/05/27 10:02:54;;;;;;;2.80;1.47;;;14.60;94.40;;;;;;5031445;28;20475;-71
2021/05/27 10:05:20;;;;;;;1.97;1.30;;;14.70;97.90;;;;;;5031792;28;20885;-72
2021/05/27 10:07:48;;;;;;;2.00;1.30;;;14.60;97.60;;;;;;5031191;28;20441;-70
2021/05/27 10:10:18;;;;;;;2.43;1.60;;;14.50;96.10;;;;;;5030282;28;20476;-71
2021/05/27 10:12:46;;;;;;;2.17;1.57;;;14.40;93.80;;;;;;5029100;28;20455;-71
2021/05/27 10:15:15;;;;;;;2.00;1.30;;;14.20;95.20;;;;;;5030447;28;20820;-70
2021/05/27 10:17:42;;;;;;;2.30;1.47;;;14.10;96.80;;;;;;5030854;28;20441;-71
2021/05/27 10:20:12;;;;;;;2.30;1.50;;;14.10;98.10;;;;;;5031733;28;20608;-72
2021/05/27 10:22:39;;;;;;;2.20;1.33;;;13.90;99.70;;;;;;5031012;28;20454;-72
2021/05/27 10:25:07;;;;;;;3.20;1.40;;;13.90;98.20;;;;;;5030975;28;20452;-70
2021/05/27 10:27:33;;;;;;;3.40;1.60;;;14.10;98.50;;;;;;5031151;28;20453;-70
2021/05/27 10:30:00;;;;;;;1.70;1.40;;;14.30;99.40;;;;;;5031218;28;20445;-71
2021/05/27 10:32:28;;;;;;;2.60;1.60;;;14.40;98.60;;;;;;5031345;28;20455;-70
2021/05/27 10:34:55;;;;;;;2.13;1.30;;;14.50;97.40;;;;;;5017129;28;20900;-70
2021/05/27 10:37:50;;;;;;;1.80;1.30;;;14.70;97.60;;;;;;5027945;28;20452;-71
2021/05/27 10:40:42;;;;;;;1.77;1.30;;;14.60;97.70;;;;;;5029204;28;20485;-72
2021/05/27 10:43:14;;;;;;;1.50;1.30;;;14.40;93.20;;;;;;5012448;28;20453;-69
2021/05/27 10:46:04;;;;;;;2.27;1.43;;;14.30;96.50;;;;;;5031088;28;20449;-69
2021/05/27 10:48:38;;;;;;;1.70;1.40;;;14.30;98.40;;;;;;5030867;28;20464;-70
2021/05/27 10:51:15;;;;;;;3.07;1.47;;;14.20;97.50;;;;;;5030421;28;20481;-70
2021/05/27 10:53:56;;;;;;;2.10;1.30;;;14.10;99.70;;;;;;5030473;28;20870;-69
2021/05/27 10:56:39;;;;;;;2.13;1.40;;;14.00;99.70;;;;;;5030748;28;20535;-69
2021/05/27 10:59:06;;;;;;;1.70;1.30;;;13.90;99.40;;;;;;5030269;28;20468;-70
2021/05/27 11:01:56;;;;;;;3.07;1.50;;;13.80;99.70;;;;;;5030147;28;20445;-70
2021/05/27 11:04:46;;;;;;;2.40;1.50;;;13.80;99.40;;;;;;5029402;28;20889;-70
2021/05/27 11:07:24;;;;;;;2.17;1.40;;;13.70;98.00;;;;;;5029038;28;20457;-70
2021/05/27 11:09:56;;;;;;;2.00;1.20;;;13.80;99.30;;;;;;5030202;28;20534;-70
2021/05/27 11:12:28;;;;;;;2.27;1.60;;;13.80;99.70;;;;;;5029786;28;20452;-69
2021/05/27 11:15:23;;;;;;;1.67;1.40;;;13.90;98.20;;;;;;5030527;28;20452;-69
2021/05/27 11:18:04;;;;;;;1.90;1.40;;;14.00;97.40;;;;;;5029447;28;20456;-71
2021/05/27 11:20:31;;;;;;;2.00;1.53;;;14.10;99.70;;;;;;5030630;28;20448;-69
2021/05/27 11:23:11;;;;;;;2.87;1.60;;;14.20;99.70;;;;;;5029372;28;20884;-70
2021/05/27 11:25:40;;;;;;;2.70;1.43;;;14.40;97.20;;;;;;5030328;28;20451;-69
2021/05/27 11:28:34;;;;;;;2.10;1.53;;;14.50;97.90;;;;;;5029731;28;20469;-69
2021/05/27 11:31:00;;;;;;;2.33;1.50;;;14.50;98.80;;;;;;5030421;28;20480;-71
2021/05/27 11:33:32;;;;;;;3.03;1.50;;;14.50;97.30;;;;;;5028677;28;20490;-71
2021/05/27 11:36:00;;;;;;;3.43;1.60;;;14.70;99.70;;;;;;5021459;28;20453;-69
2021/05/27 11:38:29;;;;;;;4.40;2.30;;;15.00;99.40;;;;;;5017588;28;20473;-70
2021/05/27 11:40:57;;;;;;;3.03;1.70;;;14.90;98.50;;;;;;5022610;28;20481;-70
2021/05/27 11:43:29;;;;;;;2.90;1.57;;;15.10;98.20;;;;;;5018366;28;20467;-70
2021/05/27 11:45:56;;;;;;;2.80;1.70;;;15.20;95.20;;;;;;5028704;28;20869;-70
2021/05/27 11:48:25;;;;;;;2.10;1.40;;;15.40;95.90;;;;;;5029274;28;20475;-71
2021/05/27 11:50:52;;;;;;;1.60;1.20;;;15.70;94.50;;;;;;5028865;28;20538;-70
2021/05/27 11:53:20;;;;;;;1.87;1.47;;;15.70;95.30;;;;;;5028396;28;20441;-70
2021/05/27 11:55:58;;;;;;;1.57;1.20;;;15.70;96.10;;;;;;5029531;28;20655;-70
2021/05/27 11:58:33;;;;;;;1.90;1.30;;;15.70;94.40;;;;;;5029650;28;20804;-70
2021/05/27 12:01:19;;;;;;;1.80;1.30;;;15.70;92.90;;;;;;5030213;28;20503;-70
2021/05/27 12:04:05;;;;;;;2.77;1.50;;;15.60;95.40;;;;;;5023953;28;20526;-70
2021/05/27 12:06:43;;;;;;;2.90;1.53;;;15.60;93.20;;;;;;5029845;28;20487;-70
2021/05/27 12:09:12;;;;;;;2.23;1.50;;;15.90;95.30;;;;;;5028943;28;20962;-69
2021/05/27 12:11:40;;;;;;;2.83;1.50;;;16.10;95.50;;;;;;5029794;28;20900;-70
2021/05/27 12:14:08;;;;;;;1.93;1.53;;;16.00;95.00;;;;;;5061967;22;20588;-66
2021/05/27 12:16:35;;;;;;;1.90;1.40;;;16.00;95.20;;;;;;5037424;28;20453;-65
2021/05/27 12:19:03;;;;;;;1.90;1.40;;;15.80;91.50;;;;;;5037632;28;20467;-67
2021/05/27 12:21:30;;;;;;;2.17;1.60;;;15.70;94.80;;;;;;5037154;28;20787;-65
2021/05/27 12:23:56;;;;;;;1.73;1.33;;;15.90;93.30;;;;;;5037632;28;20830;-65
2021/05/27 12:26:23;;;;;;;1.77;1.40;;;15.50;93.00;;;;;;5037240;28;20954;-65
2021/05/27 12:28:50;;;;;;;1.80;1.37;;;15.10;94.50;;;;;;5036623;28;20448;-65
2021/05/27 12:31:17;;;;;;;1.80;1.30;;;15.00;94.90;;;;;;5039419;28;20487;-65
2021/05/27 12:33:43;;;;;;;2.07;1.20;;;15.10;96.30;;;;;;5041471;28;20982;-66
2021/05/27 12:36:11;;;;;;;2.43;1.47;;;15.20;96.30;;;;;;5041075;28;20944;-64
2021/05/27 12:38:44;;;;;;;2.10;1.40;;;15.50;95.80;;;;;;5040281;28;20819;-66
2021/05/27 12:41:11;;;;;;;2.00;1.40;;;15.70;94.80;;;;;;5041037;28;20962;-66
2021/05/27 12:43:41;;;;;;;2.00;1.43;;;16.00;94.90;;;;;;5038737;28;20476;-65
2021/05/27 12:46:10;;;;;;;2.07;1.40;;;16.10;93.90;;;;;;5039393;28;20484;-65
2021/05/27 12:48:49;;;;;;;1.80;1.37;;;16.00;91.30;;;;;;5040635;28;20519;-65
2021/05/27 12:51:15;;;;;;;2.00;1.43;;;16.20;96.30;;;;;;5040333;28;20923;-65
2021/05/27 12:53:49;;;;;;;1.63;1.30;;;16.40;95.70;;;;;;5039487;28;20443;-66
2021/05/27 12:56:18;;;;;;;2.50;1.50;;;16.40;90.40;;;;;;5039350;28;20441;-66
2021/05/27 12:58:46;;;;;;;3.00;1.40;;;16.60;91.70;;;;;;5039563;28;20449;-65
2021/05/27 13:01:14;;;;;;;2.50;1.37;;;16.50;92.70;;;;;;5039066;28;20436;-65
2021/05/27 13:03:48;;;;;;;2.33;1.47;;;16.20;92.70;;;;;;5037898;28;20445;-66
2021/05/27 13:06:17;;;;;;;1.83;1.30;;;16.20;91.40;;;;;;5040329;28;20463;-65